DLH2XN EGLL-EDDM
Flight info
| Callsign | DLH2XN |
|---|---|
| Flight time | N/A |
| Altitude | 37000 |
| Route | DET L6 DVR UL9 KONAN UL607 SPI DCT MOVUM T109 HAREM T104 ROKIL ROKIL1B |
| Aircraft | A21N/M-SDE2E3FGIJ1LORWXYZ/HB1 |
Departure
| Time | 2026-05-07 14:28 |
|---|---|
| Airport | London Heathrow Airport (EGLL) |
Arrival
| Time | N/A |
|---|---|
| Airport | Munich Airport (EDDM) |
| Time | Latitude | Longitude | Altitude | Speed | Heading |
|---|---|---|---|---|---|
| 2026-05-07 14:00 | 51.46996 | -0.44674 | 92 ft | 0 kts | 269° |
| 2026-05-07 14:14 | 51.46996 | -0.44647 | 93 ft | 4 kts | 270° |
| 2026-05-07 14:14 | 51.46996 | -0.44609 | 92 ft | 2 kts | 270° |
| 2026-05-07 14:15 | 51.47000 | -0.44575 | 93 ft | 4 kts | 227° |
| 2026-05-07 14:15 | 51.47021 | -0.44558 | 93 ft | 3 kts | 180° |
| 2026-05-07 14:15 | 51.47046 | -0.44558 | 92 ft | 4 kts | 180° |
| 2026-05-07 14:15 | 51.47074 | -0.44559 | 92 ft | 4 kts | 180° |
| 2026-05-07 14:16 | 51.47090 | -0.44559 | 92 ft | 1 kts | 180° |
| 2026-05-07 14:19 | 51.47081 | -0.44559 | 92 ft | 3 kts | 180° |
| 2026-05-07 14:20 | 51.47053 | -0.44559 | 92 ft | 6 kts | 180° |
| 2026-05-07 14:20 | 51.47004 | -0.44558 | 93 ft | 8 kts | 180° |
| 2026-05-07 14:20 | 51.46936 | -0.44558 | 91 ft | 11 kts | 180° |
| 2026-05-07 14:20 | 51.46849 | -0.44554 | 91 ft | 14 kts | 180° |
| 2026-05-07 14:21 | 51.46744 | -0.44554 | 93 ft | 16 kts | 180° |
| 2026-05-07 14:21 | 51.46683 | -0.44564 | 95 ft | 8 kts | 211° |
| 2026-05-07 14:21 | 51.46665 | -0.44665 | 92 ft | 11 kts | 269° |
| 2026-05-07 14:21 | 51.46664 | -0.44805 | 92 ft | 14 kts | 270° |
| 2026-05-07 14:22 | 51.46664 | -0.44972 | 92 ft | 16 kts | 270° |
| 2026-05-07 14:22 | 51.46663 | -0.45147 | 92 ft | 14 kts | 269° |
| 2026-05-07 14:22 | 51.46662 | -0.45316 | 92 ft | 16 kts | 269° |
| 2026-05-07 14:22 | 51.46660 | -0.45511 | 91 ft | 19 kts | 269° |
| 2026-05-07 14:23 | 51.46661 | -0.45731 | 91 ft | 21 kts | 271° |
| 2026-05-07 14:23 | 51.46661 | -0.45942 | 91 ft | 18 kts | 269° |
| 2026-05-07 14:23 | 51.46660 | -0.46148 | 93 ft | 19 kts | 269° |
| 2026-05-07 14:23 | 51.46659 | -0.46371 | 94 ft | 21 kts | 269° |
| 2026-05-07 14:24 | 51.46658 | -0.46611 | 95 ft | 22 kts | 269° |
| 2026-05-07 14:24 | 51.46657 | -0.46868 | 95 ft | 24 kts | 269° |
| 2026-05-07 14:24 | 51.46655 | -0.47142 | 92 ft | 25 kts | 269° |
| 2026-05-07 14:24 | 51.46654 | -0.47409 | 91 ft | 21 kts | 270° |
| 2026-05-07 14:25 | 51.46654 | -0.47647 | 91 ft | 22 kts | 270° |
| 2026-05-07 14:25 | 51.46653 | -0.47902 | 92 ft | 24 kts | 270° |
| 2026-05-07 14:25 | 51.46653 | -0.48127 | 92 ft | 8 kts | 270° |
| 2026-05-07 14:25 | 51.46647 | -0.48200 | 92 ft | 5 kts | 234° |
| 2026-05-07 14:26 | 51.46610 | -0.48213 | 92 ft | 5 kts | 179° |
| 2026-05-07 14:26 | 51.46567 | -0.48213 | 92 ft | 8 kts | 179° |
| 2026-05-07 14:26 | 51.46516 | -0.48212 | 94 ft | 8 kts | 179° |
| 2026-05-07 14:26 | 51.46485 | -0.48193 | 95 ft | 5 kts | 125° |
| 2026-05-07 14:27 | 51.46479 | -0.48125 | 93 ft | 7 kts | 89° |
| 2026-05-07 14:27 | 51.46480 | -0.48010 | 92 ft | 19 kts | 89° |
| 2026-05-07 14:27 | 51.46486 | -0.47330 | 95 ft | 108 kts | 91° |
| 2026-05-07 14:27 | 51.46486 | -0.45665 | 120 ft | 183 kts | 90° |
| 2026-05-07 14:28 | 51.46493 | -0.43585 | 1015 ft | 186 kts | 90° |
| 2026-05-07 14:28 | 51.46493 | -0.41525 | 2146 ft | 181 kts | 91° |
| 2026-05-07 14:28 | 51.46246 | -0.39461 | 2736 ft | 203 kts | 119° |
| 2026-05-07 14:28 | 51.45185 | -0.37808 | 3087 ft | 232 kts | 150° |
| 2026-05-07 14:29 | 51.43872 | -0.36070 | 3555 ft | 258 kts | 124° |
| 2026-05-07 14:29 | 51.43278 | -0.33345 | 4440 ft | 265 kts | 101° |
| 2026-05-07 14:29 | 51.42949 | -0.30437 | 5302 ft | 271 kts | 101° |
| 2026-05-07 14:29 | 51.42598 | -0.27441 | 5984 ft | 279 kts | 102° |
| 2026-05-07 14:30 | 51.42221 | -0.24426 | 7095 ft | 274 kts | 103° |
| 2026-05-07 14:30 | 51.41805 | -0.21434 | 8063 ft | 276 kts | 104° |
| 2026-05-07 14:30 | 51.41377 | -0.18419 | 9010 ft | 280 kts | 104° |
| 2026-05-07 14:30 | 51.40947 | -0.15364 | 9969 ft | 284 kts | 104° |
| 2026-05-07 14:31 | 51.40507 | -0.12212 | 10649 ft | 298 kts | 104° |
| 2026-05-07 14:31 | 51.40055 | -0.08851 | 11099 ft | 317 kts | 104° |
| 2026-05-07 14:31 | 51.39583 | -0.05347 | 11841 ft | 325 kts | 104° |
| 2026-05-07 14:31 | 51.39098 | -0.01784 | 12696 ft | 330 kts | 104° |
| 2026-05-07 14:32 | 51.38597 | 0.01831 | 13613 ft | 334 kts | 104° |
| 2026-05-07 14:32 | 51.38086 | 0.05480 | 14397 ft | 339 kts | 104° |
| 2026-05-07 14:32 | 51.37578 | 0.09133 | 15127 ft | 343 kts | 104° |
| 2026-05-07 14:32 | 51.37053 | 0.12896 | 15870 ft | 349 kts | 104° |
| 2026-05-07 14:33 | 51.36517 | 0.16705 | 16604 ft | 354 kts | 104° |
| 2026-05-07 14:33 | 51.35976 | 0.20571 | 17330 ft | 359 kts | 104° |
| 2026-05-07 14:33 | 51.35423 | 0.24497 | 18044 ft | 364 kts | 104° |
| 2026-05-07 14:33 | 51.34859 | 0.28480 | 18704 ft | 369 kts | 104° |
| 2026-05-07 14:34 | 51.34285 | 0.32501 | 19334 ft | 373 kts | 104° |
| 2026-05-07 14:34 | 51.33712 | 0.36508 | 19953 ft | 377 kts | 104° |
| 2026-05-07 14:34 | 51.33124 | 0.40614 | 20550 ft | 381 kts | 104° |
| 2026-05-07 14:34 | 51.32527 | 0.44767 | 20986 ft | 386 kts | 104° |
| 2026-05-07 14:35 | 51.31922 | 0.48971 | 21578 ft | 389 kts | 104° |
| 2026-05-07 14:35 | 51.31311 | 0.53203 | 22178 ft | 393 kts | 104° |
| 2026-05-07 14:35 | 51.30693 | 0.57475 | 22777 ft | 397 kts | 104° |
| 2026-05-07 14:35 | 51.30000 | 0.61760 | 23360 ft | 400 kts | 107° |
| 2026-05-07 14:36 | 51.29213 | 0.66047 | 23873 ft | 404 kts | 108° |
| 2026-05-07 14:36 | 51.28419 | 0.70366 | 24379 ft | 407 kts | 108° |
| 2026-05-07 14:36 | 51.27630 | 0.74655 | 24879 ft | 409 kts | 108° |
| 2026-05-07 14:36 | 51.26830 | 0.79037 | 25376 ft | 412 kts | 108° |
| 2026-05-07 14:37 | 51.26016 | 0.83450 | 25868 ft | 415 kts | 108° |
| 2026-05-07 14:37 | 51.24382 | 0.92359 | 26822 ft | 422 kts | 108° |
| 2026-05-07 14:37 | 51.23552 | 0.96858 | 27287 ft | 424 kts | 108° |
| 2026-05-07 14:38 | 51.22719 | 1.01388 | 27748 ft | 427 kts | 108° |
| 2026-05-07 14:38 | 51.21872 | 1.05948 | 28171 ft | 430 kts | 108° |
| 2026-05-07 14:38 | 51.21017 | 1.10527 | 28586 ft | 432 kts | 108° |
| 2026-05-07 14:38 | 51.20162 | 1.15068 | 28994 ft | 435 kts | 108° |
| 2026-05-07 14:39 | 51.19293 | 1.19709 | 29392 ft | 438 kts | 108° |
| 2026-05-07 14:39 | 51.18420 | 1.24375 | 29783 ft | 441 kts | 108° |
| 2026-05-07 14:39 | 51.17538 | 1.29066 | 30160 ft | 443 kts | 108° |
| 2026-05-07 14:39 | 51.16661 | 1.33791 | 30482 ft | 446 kts | 106° |
| 2026-05-07 14:40 | 51.16100 | 1.38669 | 30799 ft | 450 kts | 97° |
| 2026-05-07 14:40 | 51.15846 | 1.43647 | 31114 ft | 452 kts | 95° |
| 2026-05-07 14:40 | 51.15625 | 1.48655 | 31451 ft | 454 kts | 95° |
| 2026-05-07 14:40 | 51.15401 | 1.53679 | 31760 ft | 456 kts | 95° |
| 2026-05-07 14:41 | 51.15166 | 1.58663 | 32067 ft | 458 kts | 95° |
| 2026-05-07 14:41 | 51.14913 | 1.63725 | 32365 ft | 460 kts | 95° |
| 2026-05-07 14:41 | 51.14661 | 1.68813 | 32654 ft | 462 kts | 96° |
| 2026-05-07 14:41 | 51.14402 | 1.73930 | 32955 ft | 463 kts | 96° |
| 2026-05-07 14:42 | 51.14141 | 1.79041 | 33311 ft | 463 kts | 96° |
| 2026-05-07 14:42 | 51.13885 | 1.84147 | 33665 ft | 462 kts | 95° |
| 2026-05-07 14:42 | 51.13627 | 1.89251 | 34015 ft | 462 kts | 96° |
| 2026-05-07 14:42 | 51.13366 | 1.94340 | 34318 ft | 461 kts | 96° |
| 2026-05-07 14:43 | 51.13101 | 1.99415 | 34584 ft | 460 kts | 96° |
| 2026-05-07 14:43 | 51.12837 | 2.04423 | 34823 ft | 460 kts | 96° |
| 2026-05-07 14:43 | 51.12568 | 2.09507 | 35060 ft | 460 kts | 96° |
| 2026-05-07 14:43 | 51.12286 | 2.14581 | 35304 ft | 460 kts | 96° |
| 2026-05-07 14:44 | 51.11996 | 2.19648 | 35533 ft | 460 kts | 96° |
| 2026-05-07 14:44 | 51.11706 | 2.24720 | 35753 ft | 460 kts | 96° |
| 2026-05-07 14:44 | 51.11419 | 2.29799 | 35978 ft | 460 kts | 96° |
| 2026-05-07 14:44 | 51.11140 | 2.34872 | 36187 ft | 460 kts | 96° |
| 2026-05-07 14:45 | 51.10859 | 2.39932 | 36398 ft | 460 kts | 96° |
| 2026-05-07 14:45 | 51.10580 | 2.44935 | 36606 ft | 460 kts | 96° |
| 2026-05-07 14:45 | 51.10299 | 2.50002 | 36810 ft | 460 kts | 96° |
| 2026-05-07 14:45 | 51.10010 | 2.55063 | 37008 ft | 460 kts | 96° |
| 2026-05-07 14:46 | 51.09720 | 2.60131 | 37113 ft | 460 kts | 96° |
| 2026-05-07 14:46 | 51.09351 | 2.65162 | 37103 ft | 458 kts | 102° |
| 2026-05-07 14:46 | 51.07701 | 2.74915 | 37079 ft | 456 kts | 108° |
| 2026-05-07 14:47 | 51.05920 | 2.84518 | 37080 ft | 456 kts | 108° |
| 2026-05-07 14:47 | 51.04157 | 2.94211 | 37082 ft | 456 kts | 107° |
| 2026-05-07 14:48 | 51.02397 | 3.03893 | 37082 ft | 456 kts | 108° |
| 2026-05-07 14:48 | 51.00618 | 3.13566 | 37080 ft | 456 kts | 108° |
| 2026-05-07 14:49 | 50.98840 | 3.23245 | 37079 ft | 456 kts | 108° |
| 2026-05-07 14:49 | 50.97051 | 3.32839 | 37074 ft | 457 kts | 108° |
| 2026-05-07 14:50 | 50.95246 | 3.42498 | 37080 ft | 457 kts | 108° |
| 2026-05-07 14:50 | 50.93429 | 3.52165 | 37084 ft | 457 kts | 108° |
| 2026-05-07 14:51 | 50.91606 | 3.61807 | 37082 ft | 457 kts | 108° |
| 2026-05-07 14:51 | 50.89775 | 3.71382 | 37079 ft | 457 kts | 108° |
| 2026-05-07 14:52 | 50.87907 | 3.81008 | 37079 ft | 457 kts | 108° |
| 2026-05-07 14:52 | 50.86051 | 3.90608 | 37083 ft | 456 kts | 108° |
| 2026-05-07 14:53 | 50.84185 | 4.00195 | 37085 ft | 456 kts | 109° |
| 2026-05-07 14:53 | 50.82315 | 4.09709 | 37083 ft | 456 kts | 109° |
| 2026-05-07 14:54 | 50.80439 | 4.19282 | 37082 ft | 456 kts | 109° |
| 2026-05-07 14:54 | 50.78545 | 4.28859 | 37074 ft | 457 kts | 109° |
| 2026-05-07 14:55 | 50.76628 | 4.38445 | 37083 ft | 457 kts | 109° |
| 2026-05-07 14:55 | 50.74731 | 4.47955 | 37080 ft | 457 kts | 109° |
| 2026-05-07 14:56 | 50.72808 | 4.57513 | 37085 ft | 457 kts | 109° |
| 2026-05-07 14:56 | 50.70923 | 4.67095 | 37080 ft | 457 kts | 108° |
| 2026-05-07 14:57 | 50.69077 | 4.76682 | 37079 ft | 457 kts | 108° |
| 2026-05-07 14:57 | 50.67209 | 4.86264 | 37086 ft | 457 kts | 109° |
| 2026-05-07 14:58 | 50.65334 | 4.95772 | 37080 ft | 457 kts | 109° |
| 2026-05-07 14:58 | 50.63371 | 5.05300 | 37079 ft | 457 kts | 110° |
| 2026-05-07 14:59 | 50.61401 | 5.14816 | 37069 ft | 457 kts | 109° |
| 2026-05-07 14:59 | 50.59416 | 5.24323 | 37075 ft | 457 kts | 109° |
| 2026-05-07 15:00 | 50.57435 | 5.33811 | 37086 ft | 457 kts | 110° |
| 2026-05-07 15:00 | 50.55465 | 5.43244 | 37082 ft | 457 kts | 110° |
| 2026-05-07 15:01 | 50.53466 | 5.52722 | 37078 ft | 457 kts | 110° |
| 2026-05-07 15:01 | 50.51801 | 5.60592 | 37061 ft | 457 kts | 109° |
| 2026-05-07 15:02 | 50.50009 | 5.70182 | 37070 ft | 458 kts | 107° |
| 2026-05-07 15:02 | 50.47982 | 5.81365 | 37056 ft | 458 kts | 107° |
| 2026-05-07 15:03 | 50.46234 | 5.90976 | 37053 ft | 458 kts | 107° |
| 2026-05-07 15:03 | 50.44771 | 5.99030 | 37047 ft | 458 kts | 107° |
| 2026-05-07 15:04 | 50.43034 | 6.08566 | 37050 ft | 458 kts | 107° |
| 2026-05-07 15:04 | 50.41267 | 6.18159 | 37042 ft | 457 kts | 107° |
| 2026-05-07 15:05 | 50.39485 | 6.27722 | 37036 ft | 457 kts | 107° |
| 2026-05-07 15:05 | 50.37708 | 6.37237 | 37037 ft | 458 kts | 107° |
| 2026-05-07 15:06 | 50.35914 | 6.46784 | 37036 ft | 457 kts | 108° |
| 2026-05-07 15:06 | 50.34114 | 6.56338 | 37038 ft | 457 kts | 107° |
| 2026-05-07 15:07 | 50.32303 | 6.65866 | 37039 ft | 457 kts | 108° |
| 2026-05-07 15:07 | 50.30497 | 6.75336 | 37032 ft | 457 kts | 107° |
| 2026-05-07 15:08 | 50.28675 | 6.84857 | 37029 ft | 457 kts | 108° |
| 2026-05-07 15:08 | 50.26841 | 6.94356 | 37021 ft | 457 kts | 108° |
| 2026-05-07 15:09 | 50.25005 | 7.03854 | 37024 ft | 456 kts | 108° |
| 2026-05-07 15:09 | 50.23158 | 7.13338 | 37024 ft | 456 kts | 108° |
| 2026-05-07 15:10 | 50.21318 | 7.22742 | 37026 ft | 456 kts | 108° |
| 2026-05-07 15:10 | 50.19459 | 7.32201 | 37030 ft | 456 kts | 108° |
| 2026-05-07 15:11 | 50.17587 | 7.41668 | 37032 ft | 458 kts | 108° |
| 2026-05-07 15:11 | 50.15710 | 7.51149 | 37046 ft | 457 kts | 108° |
| 2026-05-07 15:12 | 50.13822 | 7.60616 | 37046 ft | 457 kts | 108° |
| 2026-05-07 15:12 | 50.11922 | 7.70087 | 37047 ft | 457 kts | 108° |
| 2026-05-07 15:13 | 50.10033 | 7.79478 | 37048 ft | 457 kts | 108° |
| 2026-05-07 15:13 | 50.08123 | 7.88926 | 37053 ft | 458 kts | 108° |
| 2026-05-07 15:14 | 50.06199 | 7.98370 | 37051 ft | 458 kts | 108° |
| 2026-05-07 15:14 | 50.04270 | 8.07816 | 37052 ft | 458 kts | 108° |
| 2026-05-07 15:15 | 50.02346 | 8.17182 | 37051 ft | 458 kts | 109° |
| 2026-05-07 15:15 | 50.00402 | 8.26611 | 37050 ft | 458 kts | 109° |
| 2026-05-07 15:16 | 49.98440 | 8.36039 | 37051 ft | 458 kts | 109° |
| 2026-05-07 15:16 | 49.96470 | 8.45450 | 37051 ft | 458 kts | 109° |
| 2026-05-07 15:17 | 49.94228 | 8.54675 | 37051 ft | 456 kts | 119° |
| 2026-05-07 15:17 | 49.91109 | 8.63184 | 37048 ft | 456 kts | 121° |
| 2026-05-07 15:18 | 49.87946 | 8.71706 | 37050 ft | 456 kts | 121° |
| 2026-05-07 15:18 | 49.84793 | 8.80234 | 37051 ft | 457 kts | 121° |
| 2026-05-07 15:19 | 49.81611 | 8.88762 | 37056 ft | 457 kts | 121° |
| 2026-05-07 15:19 | 49.78454 | 8.97229 | 37054 ft | 457 kts | 121° |
| 2026-05-07 15:20 | 49.75269 | 9.05745 | 37054 ft | 458 kts | 121° |
| 2026-05-07 15:20 | 49.72074 | 9.14260 | 37056 ft | 458 kts | 121° |
| 2026-05-07 15:21 | 49.68872 | 9.22777 | 37054 ft | 459 kts | 121° |
| 2026-05-07 15:21 | 49.65665 | 9.31286 | 37053 ft | 458 kts | 121° |
| 2026-05-07 15:22 | 49.62463 | 9.39720 | 37054 ft | 458 kts | 123° |
| 2026-05-07 15:22 | 49.58513 | 9.47350 | 37055 ft | 456 kts | 133° |
| 2026-05-07 15:23 | 49.54295 | 9.54659 | 37047 ft | 456 kts | 133° |
| 2026-05-07 15:23 | 49.50092 | 9.61980 | 37048 ft | 457 kts | 133° |
| 2026-05-07 15:24 | 49.45917 | 9.69254 | 37049 ft | 457 kts | 133° |
| 2026-05-07 15:24 | 49.41718 | 9.76567 | 37051 ft | 457 kts | 133° |
| 2026-05-07 15:25 | 49.37516 | 9.83876 | 37053 ft | 456 kts | 133° |
| 2026-05-07 15:25 | 49.33285 | 9.91167 | 37058 ft | 457 kts | 134° |
| 2026-05-07 15:26 | 49.29068 | 9.98441 | 37045 ft | 457 kts | 134° |
| 2026-05-07 15:26 | 49.24868 | 10.05674 | 37053 ft | 457 kts | 134° |
| 2026-05-07 15:27 | 49.20624 | 10.12934 | 37049 ft | 457 kts | 134° |
| 2026-05-07 15:27 | 49.16389 | 10.20173 | 37066 ft | 457 kts | 134° |
| 2026-05-07 15:28 | 49.12091 | 10.27327 | 37050 ft | 457 kts | 135° |
| 2026-05-07 15:28 | 49.07754 | 10.34306 | 37004 ft | 451 kts | 135° |
| 2026-05-07 15:29 | 49.05606 | 10.37762 | 36447 ft | 448 kts | 135° |